sensor_id;sensor_type;location;lat;lon;timestamp;pressure;altitude;pressure_sealevel;temperature;humidity
11172;BME280;5642;50.830;12.082;2024-01-10T00:01:05;101040.38;;;-5.56;48.78
11172;BME280;5642;50.830;12.082;2024-01-10T00:03:34;100950.84;;;-6.03;49.06
11172;BME280;5642;50.830;12.082;2024-01-10T00:06:00;101003.63;;;-5.72;48.51
11172;BME280;5642;50.830;12.082;2024-01-10T00:08:27;100971.16;;;-5.89;48.76
11172;BME280;5642;50.830;12.082;2024-01-10T00:10:54;100955.44;;;-5.97;48.29
11172;BME280;5642;50.830;12.082;2024-01-10T00:13:31;100994.06;;;-5.76;49.12
11172;BME280;5642;50.830;12.082;2024-01-10T00:16:00;100929.38;;;-6.06;48.92
11172;BME280;5642;50.830;12.082;2024-01-10T00:18:40;101031.94;;;-5.55;48.43
11172;BME280;5642;50.830;12.082;2024-01-10T00:21:08;100946.03;;;-5.98;48.80
11172;BME280;5642;50.830;12.082;2024-01-10T00:23:36;101020.53;;;-5.60;48.70
11172;BME280;5642;50.830;12.082;2024-01-10T00:26:03;100969.03;;;-5.82;48.61
11172;BME280;5642;50.830;12.082;2024-01-10T00:28:33;101010.66;;;-5.68;48.42
11172;BME280;5642;50.830;12.082;2024-01-10T00:30:59;100989.44;;;-5.82;48.75
11172;BME280;5642;50.830;12.082;2024-01-10T00:33:29;101002.41;;;-5.79;48.50
11172;BME280;5642;50.830;12.082;2024-01-10T00:35:55;100942.66;;;-6.12;48.53
11172;BME280;5642;50.830;12.082;2024-01-10T00:38:27;100972.69;;;-5.93;48.80
11172;BME280;5642;50.830;12.082;2024-01-10T00:41:06;100979.19;;;-5.83;48.39
11172;BME280;5642;50.830;12.082;2024-01-10T00:43:38;101003.31;;;-5.64;48.73
11172;BME280;5642;50.830;12.082;2024-01-10T00:46:08;100997.22;;;-5.66;48.79
11172;BME280;5642;50.830;12.082;2024-01-10T00:48:34;100973.78;;;-5.73;48.31
11172;BME280;5642;50.830;12.082;2024-01-10T00:51:05;101004.09;;;-5.50;48.37
11172;BME280;5642;50.830;12.082;2024-01-10T00:53:38;101036.56;;;-5.33;48.27
11172;BME280;5642;50.830;12.082;2024-01-10T00:56:06;100981.47;;;-5.59;48.58
11172;BME280;5642;50.830;12.082;2024-01-10T00:58:36;100974.59;;;-5.60;48.09
11172;BME280;5642;50.830;12.082;2024-01-10T01:01:03;100918.81;;;-5.83;48.19
11172;BME280;5642;50.830;12.082;2024-01-10T01:03:32;101003.47;;;-5.31;48.31
11172;BME280;5642;50.830;12.082;2024-01-10T01:05:59;100970.91;;;-5.50;48.43
11172;BME280;5642;50.830;12.082;2024-01-10T01:08:29;101001.00;;;-5.30;48.34
11172;BME280;5642;50.830;12.082;2024-01-10T01:10:56;101016.88;;;-5.21;48.42
11172;BME280;5642;50.830;12.082;2024-01-10T01:20:59;101008.47;;;-5.33;48.40
11172;BME280;5642;50.830;12.082;2024-01-10T01:23:32;101028.75;;;-5.21;48.20
11172;BME280;5642;50.830;12.082;2024-01-10T01:25:59;101024.88;;;-5.29;48.26
11172;BME280;5642;50.830;12.082;2024-01-10T01:28:27;101037.91;;;-5.25;48.64
11172;BME280;5642;50.830;12.082;2024-01-10T01:30:54;100971.44;;;-5.56;48.43
11172;BME280;5642;50.830;12.082;2024-01-10T01:34:01;101035.53;;;-5.22;48.58
11172;BME280;5642;50.830;12.082;2024-01-10T01:36:28;101020.91;;;-5.24;48.22
11172;BME280;5642;50.830;12.082;2024-01-10T01:38:55;100986.22;;;-5.35;48.19
11172;BME280;5642;50.830;12.082;2024-01-10T01:41:25;100953.47;;;-5.57;48.25
11172;BME280;5642;50.830;12.082;2024-01-10T01:43:59;100904.78;;;-5.75;47.87
11172;BME280;5642;50.830;12.082;2024-01-10T01:46:27;100926.00;;;-5.61;48.06
11172;BME280;5642;50.830;12.082;2024-01-10T01:48:56;100998.34;;;-5.17;48.47
11172;BME280;5642;50.830;12.082;2024-01-10T01:51:23;100984.97;;;-5.27;48.47
11172;BME280;5642;50.830;12.082;2024-01-10T01:53:54;100987.44;;;-5.29;48.64
11172;BME280;5642;50.830;12.082;2024-01-10T01:56:20;100941.94;;;-5.50;48.22
11172;BME280;5642;50.830;12.082;2024-01-10T01:58:54;100951.69;;;-5.43;48.21
11172;BME280;5642;50.830;12.082;2024-01-10T02:09:18;100994.03;;;-5.32;48.47
11172;BME280;5642;50.830;12.082;2024-01-10T02:11:48;100932.38;;;-5.69;48.19
11172;BME280;5642;50.830;12.082;2024-01-10T02:14:16;100896.38;;;-5.88;48.42
11172;BME280;5642;50.830;12.082;2024-01-10T02:16:46;101000.03;;;-5.32;47.99
11172;BME280;5642;50.830;12.082;2024-01-10T02:19:23;100995.91;;;-5.30;48.25
11172;BME280;5642;50.830;12.082;2024-01-10T02:21:55;100938.41;;;-5.67;48.16
11172;BME280;5642;50.830;12.082;2024-01-10T02:24:26;100964.13;;;-5.49;48.19
11172;BME280;5642;50.830;12.082;2024-01-10T02:26:53;100943.00;;;-5.62;48.57
11172;BME280;5642;50.830;12.082;2024-01-10T02:29:22;100998.91;;;-5.37;48.49
11172;BME280;5642;50.830;12.082;2024-01-10T02:31:50;100963.16;;;-5.52;48.21
11172;BME280;5642;50.830;12.082;2024-01-10T02:34:19;100952.69;;;-5.56;48.33
11172;BME280;5642;50.830;12.082;2024-01-10T02:36:47;100965.94;;;-5.47;48.20
11172;BME280;5642;50.830;12.082;2024-01-10T02:39:17;100990.78;;;-5.30;48.62
11172;BME280;5642;50.830;12.082;2024-01-10T02:41:44;100955.03;;;-5.44;48.24
11172;BME280;5642;50.830;12.082;2024-01-10T02:44:15;100938.25;;;-5.56;47.70
11172;BME280;5642;50.830;12.082;2024-01-10T02:46:42;100965.00;;;-5.34;48.21
11172;BME280;5642;50.830;12.082;2024-01-10T02:49:11;100997.47;;;-5.17;47.87
11172;BME280;5642;50.830;12.082;2024-01-10T02:51:38;100932.25;;;-5.56;48.01
11172;BME280;5642;50.830;12.082;2024-01-10T02:54:07;100933.75;;;-5.60;48.26
11172;BME280;5642;50.830;12.082;2024-01-10T02:56:33;100915.38;;;-5.69;47.99
11172;BME280;5642;50.830;12.082;2024-01-10T02:59:00;100963.13;;;-5.37;48.40
11172;BME280;5642;50.830;12.082;2024-01-10T03:01:26;100916.66;;;-5.61;48.53
11172;BME280;5642;50.830;12.082;2024-01-10T03:03:52;100973.00;;;-5.28;48.27
11172;BME280;5642;50.830;12.082;2024-01-10T03:06:21;100917.63;;;-5.59;48.00
11172;BME280;5642;50.830;12.082;2024-01-10T03:08:47;100963.66;;;-5.28;47.65
11172;BME280;5642;50.830;12.082;2024-01-10T03:11:19;100938.75;;;-5.46;47.94
11172;BME280;5642;50.830;12.082;2024-01-10T03:13:46;100960.31;;;-5.27;48.40
11172;BME280;5642;50.830;12.082;2024-01-10T03:16:15;100912.09;;;-5.52;48.10
11172;BME280;5642;50.830;12.082;2024-01-10T03:18:41;100977.44;;;-5.09;47.60
11172;BME280;5642;50.830;12.082;2024-01-10T03:21:12;100953.78;;;-5.22;48.43
11172;BME280;5642;50.830;12.082;2024-01-10T03:23:39;100898.53;;;-5.50;48.22
11172;BME280;5642;50.830;12.082;2024-01-10T03:26:09;100969.41;;;-5.01;47.44
11172;BME280;5642;50.830;12.082;2024-01-10T03:28:36;100917.84;;;-5.25;47.57
11172;BME280;5642;50.830;12.082;2024-01-10T03:31:05;100893.31;;;-5.37;47.23
11172;BME280;5642;50.830;12.082;2024-01-10T03:33:32;101000.63;;;-4.76;47.50
11172;BME280;5642;50.830;12.082;2024-01-10T03:36:06;100982.69;;;-4.77;47.14
11172;BME280;5642;50.830;12.082;2024-01-10T03:38:37;100967.94;;;-4.81;47.24
11172;BME280;5642;50.830;12.082;2024-01-10T03:41:18;100922.22;;;-5.07;47.77
11172;BME280;5642;50.830;12.082;2024-01-10T03:43:46;100863.97;;;-5.29;47.79
11172;BME280;5642;50.830;12.082;2024-01-10T03:46:16;100981.34;;;-4.54;47.70
11172;BME280;5642;50.830;12.082;2024-01-10T03:48:43;100980.63;;;-4.52;47.29
11172;BME280;5642;50.830;12.082;2024-01-10T03:51:17;100974.25;;;-4.44;47.16
11172;BME280;5642;50.830;12.082;2024-01-10T03:53:49;100969.22;;;-4.42;47.50
11172;BME280;5642;50.830;12.082;2024-01-10T03:56:19;100910.69;;;-4.68;47.54
11172;BME280;5642;50.830;12.082;2024-01-10T03:58:46;100972.59;;;-4.27;47.23
11172;BME280;5642;50.830;12.082;2024-01-10T04:01:22;100929.09;;;-4.43;47.35
11172;BME280;5642;50.830;12.082;2024-01-10T04:03:50;100941.50;;;-4.35;47.51
11172;BME280;5642;50.830;12.082;2024-01-10T04:06:16;100963.16;;;-4.28;47.43
11172;BME280;5642;50.830;12.082;2024-01-10T04:08:43;100888.31;;;-4.72;47.53
11172;BME280;5642;50.830;12.082;2024-01-10T04:11:11;100869.63;;;-4.88;47.75
11172;BME280;5642;50.830;12.082;2024-01-10T04:13:38;100885.03;;;-4.86;47.47
11172;BME280;5642;50.830;12.082;2024-01-10T04:16:08;100936.44;;;-4.65;47.51
11172;BME280;5642;50.830;12.082;2024-01-10T04:18:35;100887.19;;;-4.94;47.38
11172;BME280;5642;50.830;12.082;2024-01-10T04:21:05;100879.75;;;-5.05;47.33
11172;BME280;5642;50.830;12.082;2024-01-10T04:23:32;100938.66;;;-4.71;47.62
11172;BME280;5642;50.830;12.082;2024-01-10T04:26:02;100926.91;;;-4.84;48.17
11172;BME280;5642;50.830;12.082;2024-01-10T04:28:40;100919.63;;;-4.93;47.77
11172;BME280;5642;50.830;12.082;2024-01-10T04:31:11;100906.59;;;-4.97;47.84
11172;BME280;5642;50.830;12.082;2024-01-10T04:33:38;100835.63;;;-5.34;47.73
11172;BME280;5642;50.830;12.082;2024-01-10T04:36:06;100963.06;;;-4.62;47.65
11172;BME280;5642;50.830;12.082;2024-01-10T04:38:34;100884.69;;;-5.08;47.95
11172;BME280;5642;50.830;12.082;2024-01-10T04:41:04;100907.41;;;-4.98;47.86
11172;BME280;5642;50.830;12.082;2024-01-10T04:43:31;100959.25;;;-4.68;47.90
11172;BME280;5642;50.830;12.082;2024-01-10T04:46:06;100954.09;;;-4.70;47.81
11172;BME280;5642;50.830;12.082;2024-01-10T04:48:54;100866.44;;;-5.31;47.90
11172;BME280;5642;50.830;12.082;2024-01-10T04:51:21;100850.22;;;-5.31;47.96
11172;BME280;5642;50.830;12.082;2024-01-10T04:53:51;100907.22;;;-5.01;48.00
11172;BME280;5642;50.830;12.082;2024-01-10T04:56:18;100950.66;;;-4.70;47.57
11172;BME280;5642;50.830;12.082;2024-01-10T04:58:48;100852.22;;;-5.26;47.69
11172;BME280;5642;50.830;12.082;2024-01-10T05:01:16;100937.53;;;-4.77;47.85
11172;BME280;5642;50.830;12.082;2024-01-10T05:03:45;100939.38;;;-4.74;47.93
11172;BME280;5642;50.830;12.082;2024-01-10T05:06:15;100929.59;;;-4.81;48.15
11172;BME280;5642;50.830;12.082;2024-01-10T05:08:45;100882.81;;;-5.11;47.63
11172;BME280;5642;50.830;12.082;2024-01-10T05:11:17;100942.81;;;-4.74;47.57
11172;BME280;5642;50.830;12.082;2024-01-10T05:13:44;100852.59;;;-5.20;47.63
11172;BME280;5642;50.830;12.082;2024-01-10T05:16:13;100862.34;;;-5.13;47.13
11172;BME280;5642;50.830;12.082;2024-01-10T05:18:41;100849.94;;;-5.21;47.85
11172;BME280;5642;50.830;12.082;2024-01-10T05:21:10;100943.06;;;-4.69;48.22
11172;BME280;5642;50.830;12.082;2024-01-10T05:23:36;100894.84;;;-4.94;47.96
11172;BME280;5642;50.830;12.082;2024-01-10T05:26:07;100876.22;;;-5.07;47.46
11172;BME280;5642;50.830;12.082;2024-01-10T05:28:35;100954.34;;;-4.49;47.95
11172;BME280;5642;50.830;12.082;2024-01-10T05:31:04;100930.19;;;-4.54;47.61
11172;BME280;5642;50.830;12.082;2024-01-10T05:33:31;100934.78;;;-4.49;47.75
11172;BME280;5642;50.830;12.082;2024-01-10T05:36:01;100892.88;;;-4.67;47.61
11172;BME280;5642;50.830;12.082;2024-01-10T05:38:28;100865.88;;;-4.78;47.82
11172;BME280;5642;50.830;12.082;2024-01-10T05:40:58;100880.34;;;-4.62;47.27
11172;BME280;5642;50.830;12.082;2024-01-10T05:43:25;100860.28;;;-4.71;47.12
11172;BME280;5642;50.830;12.082;2024-01-10T05:45:55;100938.28;;;-4.14;47.55
11172;BME280;5642;50.830;12.082;2024-01-10T05:48:31;100852.44;;;-4.58;47.39
11172;BME280;5642;50.830;12.082;2024-01-10T05:51:01;100943.88;;;-4.05;46.86
11172;BME280;5642;50.830;12.082;2024-01-10T05:53:28;100919.78;;;-4.09;47.14
11172;BME280;5642;50.830;12.082;2024-01-10T05:55:59;100954.72;;;-3.77;47.23
11172;BME280;5642;50.830;12.082;2024-01-10T05:58:25;100940.84;;;-3.80;46.74
11172;BME280;5642;50.830;12.082;2024-01-10T06:00:57;100875.19;;;-4.14;46.77
11172;BME280;5642;50.830;12.082;2024-01-10T06:03:24;100928.75;;;-3.83;46.88
11172;BME280;5642;50.830;12.082;2024-01-10T06:06:01;100860.03;;;-4.27;47.10
11172;BME280;5642;50.830;12.082;2024-01-10T06:08:32;100839.97;;;-4.36;47.02
11172;BME280;5642;50.830;12.082;2024-01-10T06:11:06;100839.56;;;-4.27;46.95
11172;BME280;5642;50.830;12.082;2024-01-10T06:13:35;100949.50;;;-3.61;47.06
11172;BME280;5642;50.830;12.082;2024-01-10T06:16:03;100944.66;;;-3.56;47.07
11172;BME280;5642;50.830;12.082;2024-01-10T06:18:32;100869.06;;;-4.00;46.87
11172;BME280;5642;50.830;12.082;2024-01-10T06:20:59;100871.72;;;-3.98;47.15
11172;BME280;5642;50.830;12.082;2024-01-10T06:23:30;100949.59;;;-3.59;47.17
11172;BME280;5642;50.830;12.082;2024-01-10T06:25:56;100952.75;;;-3.65;47.36
11172;BME280;5642;50.830;12.082;2024-01-10T06:28:23;100838.97;;;-4.21;46.78
11172;BME280;5642;50.830;12.082;2024-01-10T06:30:50;100908.44;;;-3.80;47.44
11172;BME280;5642;50.830;12.082;2024-01-10T06:33:32;100841.28;;;-4.26;46.83
11172;BME280;5642;50.830;12.082;2024-01-10T06:35:59;100890.97;;;-4.05;47.24
11172;BME280;5642;50.830;12.082;2024-01-10T06:38:28;100868.72;;;-4.23;46.88
11172;BME280;5642;50.830;12.082;2024-01-10T06:40:56;100842.53;;;-4.36;47.66
11172;BME280;5642;50.830;12.082;2024-01-10T06:43:26;100919.69;;;-3.94;47.20
11172;BME280;5642;50.830;12.082;2024-01-10T06:45:55;100848.59;;;-4.33;47.42
11172;BME280;5642;50.830;12.082;2024-01-10T06:48:27;100832.59;;;-4.46;47.36
11172;BME280;5642;50.830;12.082;2024-01-10T06:50:57;100912.09;;;-3.92;47.39
11172;BME280;5642;50.830;12.082;2024-01-10T06:53:25;100882.38;;;-4.07;46.69
11172;BME280;5642;50.830;12.082;2024-01-10T06:55:53;100880.03;;;-4.02;46.96
11172;BME280;5642;50.830;12.082;2024-01-10T06:58:22;100905.72;;;-3.83;46.70
11172;BME280;5642;50.830;12.082;2024-01-10T07:00:51;100899.81;;;-3.82;47.00
11172;BME280;5642;50.830;12.082;2024-01-10T07:03:17;100926.56;;;-3.59;46.90
11172;BME280;5642;50.830;12.082;2024-01-10T07:05:47;100857.59;;;-3.90;46.83
11172;BME280;5642;50.830;12.082;2024-01-10T07:08:15;100887.63;;;-3.70;47.28
11172;BME280;5642;50.830;12.082;2024-01-10T07:10:43;100854.59;;;-3.81;46.75
11172;BME280;5642;50.830;12.082;2024-01-10T07:13:10;100835.72;;;-3.83;46.88
11172;BME280;5642;50.830;12.082;2024-01-10T07:15:42;100933.09;;;-3.30;46.73
11172;BME280;5642;50.830;12.082;2024-01-10T07:18:09;100908.06;;;-3.36;46.70
11172;BME280;5642;50.830;12.082;2024-01-10T07:20:37;100886.31;;;-3.44;46.92
11172;BME280;5642;50.830;12.082;2024-01-10T07:23:04;100902.25;;;-3.32;46.77
11172;BME280;5642;50.830;12.082;2024-01-10T07:25:30;100892.97;;;-3.30;46.86
11172;BME280;5642;50.830;12.082;2024-01-10T07:27:58;100916.69;;;-3.16;46.73
11172;BME280;5642;50.830;12.082;2024-01-10T07:30:26;100901.16;;;-3.19;46.47
11172;BME280;5642;50.830;12.082;2024-01-10T07:32:56;100864.25;;;-3.40;46.50
11172;BME280;5642;50.830;12.082;2024-01-10T07:35:24;100943.47;;;-2.92;46.76
11172;BME280;5642;50.830;12.082;2024-01-10T07:37:54;100921.84;;;-2.97;47.02
11172;BME280;5642;50.830;12.082;2024-01-10T07:40:25;100950.03;;;-2.79;46.85
11172;BME280;5642;50.830;12.082;2024-01-10T07:42:53;100954.78;;;-2.69;46.80
11172;BME280;5642;50.830;12.082;2024-01-10T07:45:23;100920.41;;;-2.92;46.79
11172;BME280;5642;50.830;12.082;2024-01-10T07:47:49;100973.97;;;-2.61;46.95
11172;BME280;5642;50.830;12.082;2024-01-10T07:50:23;100959.78;;;-2.72;46.81
11172;BME280;5642;50.830;12.082;2024-01-10T07:52:54;100926.91;;;-2.98;46.82
11172;BME280;5642;50.830;12.082;2024-01-10T07:55:23;100869.47;;;-3.39;46.91
11172;BME280;5642;50.830;12.082;2024-01-10T07:57:52;100926.25;;;-3.12;46.91
11172;BME280;5642;50.830;12.082;2024-01-10T08:00:22;100954.91;;;-2.85;46.85
11172;BME280;5642;50.830;12.082;2024-01-10T08:02:52;100887.69;;;-3.15;46.88
11172;BME280;5642;50.830;12.082;2024-01-10T08:05:20;100912.56;;;-2.95;47.16
11172;BME280;5642;50.830;12.082;2024-01-10T08:07:48;100986.84;;;-2.42;46.97
11172;BME280;5642;50.830;12.082;2024-01-10T08:10:18;100990.69;;;-2.32;46.79
11172;BME280;5642;50.830;12.082;2024-01-10T08:12:51;100995.50;;;-2.20;46.62
11172;BME280;5642;50.830;12.082;2024-01-10T08:15:28;100983.31;;;-2.05;46.77
11172;BME280;5642;50.830;12.082;2024-01-10T08:18:01;100949.41;;;-2.17;46.64
11172;BME280;5642;50.830;12.082;2024-01-10T08:20:32;100839.50;;;-2.66;46.55
11172;BME280;5642;50.830;12.082;2024-01-10T08:23:04;100916.53;;;-2.07;46.40
11172;BME280;5642;50.830;12.082;2024-01-10T08:25:35;100866.28;;;-2.21;46.34
11172;BME280;5642;50.830;12.082;2024-01-10T08:28:10;100861.75;;;-2.06;46.22
11172;BME280;5642;50.830;12.082;2024-01-10T08:30:46;100859.81;;;-1.92;46.17
11172;BME280;5642;50.830;12.082;2024-01-10T08:33:30;100834.13;;;-1.92;46.17
11172;BME280;5642;50.830;12.082;2024-01-10T08:36:04;100947.50;;;-1.21;45.98
11172;BME280;5642;50.830;12.082;2024-01-10T08:38:41;100893.66;;;-1.38;45.98
11172;BME280;5642;50.830;12.082;2024-01-10T08:41:11;100857.31;;;-1.47;46.02
11172;BME280;5642;50.830;12.082;2024-01-10T08:43:43;100879.50;;;-1.29;45.92
11172;BME280;5642;50.830;12.082;2024-01-10T08:46:13;100892.91;;;-1.13;45.92
11172;BME280;5642;50.830;12.082;2024-01-10T08:48:41;100887.91;;;-1.10;46.27
11172;BME280;5642;50.830;12.082;2024-01-10T08:51:10;100878.66;;;-1.05;46.08
11172;BME280;5642;50.830;12.082;2024-01-10T08:53:39;100844.03;;;-1.15;46.05
11172;BME280;5642;50.830;12.082;2024-01-10T08:56:14;100904.81;;;-0.72;45.90
11172;BME280;5642;50.830;12.082;2024-01-10T08:58:46;100890.00;;;-0.78;45.95
11172;BME280;5642;50.830;12.082;2024-01-10T09:01:16;100813.22;;;-1.13;45.73
11172;BME280;5642;50.830;12.082;2024-01-10T09:03:54;100889.16;;;-0.78;45.97
11172;BME280;5642;50.830;12.082;2024-01-10T09:06:25;100843.91;;;-0.96;45.85
11172;BME280;5642;50.830;12.082;2024-01-10T09:09:03;100844.06;;;-0.91;45.66
11172;BME280;5642;50.830;12.082;2024-01-10T09:11:42;100859.31;;;-0.73;45.67
11172;BME280;5642;50.830;12.082;2024-01-10T09:14:24;100851.75;;;-0.69;45.63
11172;BME280;5642;50.830;12.082;2024-01-10T09:20:53;100855.47;;;-0.61;45.79
11172;BME280;5642;50.830;12.082;2024-01-10T09:23:29;100920.91;;;-0.07;45.92
11172;BME280;5642;50.830;12.082;2024-01-10T09:26:00;100856.19;;;-0.41;45.93
11172;BME280;5642;50.830;12.082;2024-01-10T09:28:37;100906.63;;;0.02;45.90
11172;BME280;5642;50.830;12.082;2024-01-10T09:31:10;100883.75;;;-0.15;46.10
11172;BME280;5642;50.830;12.082;2024-01-10T09:34:07;100840.91;;;-0.36;46.24
11172;BME280;5642;50.830;12.082;2024-01-10T09:36:41;100823.25;;;-0.50;46.17
11172;BME280;5642;50.830;12.082;2024-01-10T09:39:15;100957.97;;;0.21;46.01
11172;BME280;5642;50.830;12.082;2024-01-10T09:41:49;100837.06;;;-0.48;46.22
11172;BME280;5642;50.830;12.082;2024-01-10T09:44:32;100944.50;;;0.04;46.60
11172;BME280;5642;50.830;12.082;2024-01-10T09:47:02;100824.22;;;-0.71;46.44
11172;BME280;5642;50.830;12.082;2024-01-10T09:49:31;100904.84;;;-0.25;46.78
11172;BME280;5642;50.830;12.082;2024-01-10T09:52:05;100813.81;;;-0.74;46.46
11172;BME280;5642;50.830;12.082;2024-01-10T09:57:58;100904.09;;;-0.21;46.52
11172;BME280;5642;50.830;12.082;2024-01-10T10:00:26;100813.06;;;-0.72;46.50
11172;BME280;5642;50.830;12.082;2024-01-10T10:03:00;100809.88;;;-0.65;46.15
11172;BME280;5642;50.830;12.082;2024-01-10T10:05:42;100787.28;;;-0.73;46.40
11172;BME280;5642;50.830;12.082;2024-01-10T10:08:17;100887.03;;;-0.19;46.23
11172;BME280;5642;50.830;12.082;2024-01-10T10:10:49;100807.34;;;-0.63;46.54
11172;BME280;5642;50.830;12.082;2024-01-10T10:13:31;100881.13;;;-0.16;46.36
11172;BME280;5642;50.830;12.082;2024-01-10T10:16:10;100806.44;;;-0.65;46.02
11172;BME280;5642;50.830;12.082;2024-01-10T10:18:44;100854.56;;;-0.39;46.50
11172;BME280;5642;50.830;12.082;2024-01-10T10:21:26;100885.25;;;-0.20;46.30
11172;BME280;5642;50.830;12.082;2024-01-10T10:26:45;100843.91;;;-0.48;46.25
11172;BME280;5642;50.830;12.082;2024-01-10T10:29:17;100873.59;;;-0.34;45.83
11172;BME280;5642;50.830;12.082;2024-01-10T10:31:55;100893.13;;;-0.17;46.59
11172;BME280;5642;50.830;12.082;2024-01-10T10:34:36;100764.53;;;-0.85;46.37
11172;BME280;5642;50.830;12.082;2024-01-10T10:37:07;100862.88;;;-0.22;46.28
11172;BME280;5642;50.830;12.082;2024-01-10T10:39:40;100821.50;;;-0.27;46.56
11172;BME280;5642;50.830;12.082;2024-01-10T10:42:17;100815.44;;;0.77;46.85
11172;BME280;5642;50.830;12.082;2024-01-10T10:45:04;100878.00;;;2.57;46.74
11172;BME280;5642;50.830;12.082;2024-01-10T10:47:37;100773.72;;;3.42;46.68
11172;BME280;5642;50.830;12.082;2024-01-10T10:50:41;100776.16;;;4.94;46.32
11172;BME280;5642;50.830;12.082;2024-01-10T10:53:32;100798.44;;;6.34;46.29
11172;BME280;5642;50.830;12.082;2024-01-10T10:56:10;100804.28;;;7.54;46.74
11172;BME280;5642;50.830;12.082;2024-01-10T10:58:42;100804.41;;;8.54;47.10
11172;BME280;5642;50.830;12.082;2024-01-10T11:01:14;100757.22;;;9.19;46.31
11172;BME280;5642;50.830;12.082;2024-01-10T11:03:48;100758.53;;;9.93;46.45
11172;BME280;5642;50.830;12.082;2024-01-10T11:06:23;100780.56;;;10.70;46.19
11172;BME280;5642;50.830;12.082;2024-01-10T11:09:01;100757.25;;;11.21;46.35
11172;BME280;5642;50.830;12.082;2024-01-10T11:11:53;100847.72;;;12.23;46.52
11172;BME280;5642;50.830;12.082;2024-01-10T11:17:50;100744.56;;;12.62;46.20
11172;BME280;5642;50.830;12.082;2024-01-10T11:26:14;100744.50;;;13.51;46.29
11172;BME280;5642;50.830;12.082;2024-01-10T11:28:43;100738.88;;;13.66;46.15
11172;BME280;5642;50.830;12.082;2024-01-10T11:31:14;100834.00;;;14.28;46.26
11172;BME280;5642;50.830;12.082;2024-01-10T11:33:49;100728.88;;;13.81;46.03
11172;BME280;5642;50.830;12.082;2024-01-10T11:36:19;100772.06;;;14.12;45.94
11172;BME280;5642;50.830;12.082;2024-01-10T11:41:36;100741.00;;;13.88;45.37
11172;BME280;5642;50.830;12.082;2024-01-10T11:46:39;100795.22;;;13.98;45.22
11172;BME280;5642;50.830;12.082;2024-01-10T11:49:13;100739.19;;;13.53;44.71
11172;BME280;5642;50.830;12.082;2024-01-10T11:51:56;100694.47;;;13.11;44.52
11172;BME280;5642;50.830;12.082;2024-01-10T11:54:39;100679.31;;;12.82;43.76
11172;BME280;5642;50.830;12.082;2024-01-10T11:59:45;100741.09;;;12.60;42.03
11172;BME280;5642;50.830;12.082;2024-01-10T12:02:14;100725.97;;;12.24;41.82
11172;BME280;5642;50.830;12.082;2024-01-10T12:04:46;100725.88;;;11.77;41.15
11172;BME280;5642;50.830;12.082;2024-01-10T12:07:19;100772.56;;;11.51;40.91
11172;BME280;5642;50.830;12.082;2024-01-10T12:09:50;100707.50;;;10.43;40.76
11172;BME280;5642;50.830;12.082;2024-01-10T12:12:20;100768.03;;;10.02;41.06
11172;BME280;5642;50.830;12.082;2024-01-10T12:15:08;100789.44;;;9.27;41.41
11172;BME280;5642;50.830;12.082;2024-01-10T12:17:39;100754.81;;;8.22;41.79
11172;BME280;5642;50.830;12.082;2024-01-10T12:20:11;100774.75;;;7.50;42.17
11172;BME280;5642;50.830;12.082;2024-01-10T12:22:53;100709.13;;;6.41;43.06
11172;BME280;5642;50.830;12.082;2024-01-10T12:25:22;100652.00;;;5.41;43.43
11172;BME280;5642;50.830;12.082;2024-01-10T12:28:10;100678.22;;;4.84;43.90
11172;BME280;5642;50.830;12.082;2024-01-10T12:30:47;100756.97;;;4.81;44.09
11172;BME280;5642;50.830;12.082;2024-01-10T12:33:57;100705.50;;;3.92;44.84
11172;BME280;5642;50.830;12.082;2024-01-10T12:36:32;100704.94;;;3.58;44.80
11172;BME280;5642;50.830;12.082;2024-01-10T12:39:05;100666.75;;;2.99;44.65
11172;BME280;5642;50.830;12.082;2024-01-10T12:41:44;100716.09;;;3.08;44.86
11172;BME280;5642;50.830;12.082;2024-01-10T12:44:14;100709.72;;;2.90;44.83
11172;BME280;5642;50.830;12.082;2024-01-10T12:46:50;100711.94;;;2.73;45.11
11172;BME280;5642;50.830;12.082;2024-01-10T12:49:39;100770.97;;;2.91;44.79
11172;BME280;5642;50.830;12.082;2024-01-10T12:52:20;100753.13;;;2.64;44.78
11172;BME280;5642;50.830;12.082;2024-01-10T12:55:01;100655.03;;;1.93;45.07
11172;BME280;5642;50.830;12.082;2024-01-10T12:57:41;100669.78;;;1.98;45.05
11172;BME280;5642;50.830;12.082;2024-01-10T13:00:41;100788.28;;;2.54;45.03
11172;BME280;5642;50.830;12.082;2024-01-10T13:03:19;100752.13;;;2.18;45.18
11172;BME280;5642;50.830;12.082;2024-01-10T13:05:53;100656.00;;;1.61;45.16
11172;BME280;5642;50.830;12.082;2024-01-10T13:11:56;100676.47;;;1.53;45.15
11172;BME280;5642;50.830;12.082;2024-01-10T13:14:45;100662.34;;;1.39;45.20
11172;BME280;5642;50.830;12.082;2024-01-10T13:17:17;100713.78;;;1.66;45.12
11172;BME280;5642;50.830;12.082;2024-01-10T13:19:54;100706.81;;;1.64;45.09
11172;BME280;5642;50.830;12.082;2024-01-10T13:22:46;100686.69;;;1.49;45.16
11172;BME280;5642;50.830;12.082;2024-01-10T13:25:44;100656.19;;;1.34;45.04
11172;BME280;5642;50.830;12.082;2024-01-10T13:28:15;100756.44;;;1.85;45.06
11172;BME280;5642;50.830;12.082;2024-01-10T13:31:10;100716.13;;;1.57;45.06
11172;BME280;5642;50.830;12.082;2024-01-10T13:33:50;100788.53;;;1.93;45.14
11172;BME280;5642;50.830;12.082;2024-01-10T13:36:23;100702.81;;;1.40;45.42
11172;BME280;5642;50.830;12.082;2024-01-10T13:39:01;100680.78;;;1.22;45.13
11172;BME280;5642;50.830;12.082;2024-01-10T13:41:36;100657.84;;;0.99;44.79
11172;BME280;5642;50.830;12.082;2024-01-10T13:44:13;100779.97;;;1.61;44.97
11172;BME280;5642;50.830;12.082;2024-01-10T13:46:50;100642.66;;;0.78;45.06
11172;BME280;5642;50.830;12.082;2024-01-10T13:49:27;100657.50;;;0.87;45.16
11172;BME280;5642;50.830;12.082;2024-01-10T13:51:58;100767.47;;;1.45;45.16
11172;BME280;5642;50.830;12.082;2024-01-10T13:54:35;100685.22;;;0.94;44.80
11172;BME280;5642;50.830;12.082;2024-01-10T13:57:10;100689.56;;;0.95;45.05
11172;BME280;5642;50.830;12.082;2024-01-10T14:02:46;100716.69;;;1.12;45.38
11172;BME280;5642;50.830;12.082;2024-01-10T14:05:28;100654.59;;;0.75;45.14
11172;BME280;5642;50.830;12.082;2024-01-10T14:08:06;100734.94;;;1.18;45.64